createdAt,value
2022-09-20T00:01:48.501Z,96813.72
2022-09-20T00:04:47.571Z,96813.16
2022-09-20T00:07:47.459Z,96814.25
2022-09-20T00:10:44.292Z,96804.34
2022-09-20T00:13:43.708Z,96799.78
2022-09-20T00:16:42.066Z,96807.84
2022-09-20T00:19:39.000Z,96799.66
2022-09-20T00:22:35.794Z,96807.13
2022-09-20T00:25:33.361Z,96803.56
2022-09-20T00:28:31.444Z,96798.91
2022-09-20T00:31:28.362Z,96797.09
2022-09-20T00:34:43.980Z,96801.22
2022-09-20T00:37:42.529Z,96801.13
2022-09-20T00:40:44.622Z,96800.09
2022-09-20T00:43:45.142Z,96800.94
2022-09-20T00:46:45.158Z,96811.28
2022-09-20T00:49:42.015Z,96811.66
2022-09-20T00:52:39.812Z,96814.97
2022-09-20T00:55:42.963Z,96810.16
2022-09-20T00:59:04.619Z,96806.03
2022-09-20T01:02:16.076Z,96817.41
2022-09-20T01:05:15.497Z,96816.09
2022-09-20T01:08:13.575Z,96816.72
2022-09-20T01:11:10.366Z,96833.78
2022-09-20T01:14:07.692Z,96829.63
2022-09-20T01:17:06.735Z,96823.78
2022-09-20T01:20:35.892Z,96820.75
2022-09-20T01:23:51.698Z,96811.34
2022-09-20T01:27:17.094Z,96817.63
2022-09-20T01:30:23.594Z,96810.75
2022-09-20T01:33:53.310Z,96811.78
2022-09-20T01:37:04.695Z,96806.72
2022-09-20T01:40:16.999Z,96807.31
2022-09-20T01:43:31.613Z,96814.81
2022-09-20T01:46:34.677Z,96809.47
2022-09-20T01:49:55.979Z,96811.63
2022-09-20T01:53:15.415Z,96808.28
2022-09-20T01:56:37.273Z,96814.25
2022-09-20T01:59:46.400Z,96810.00
2022-09-20T02:03:21.775Z,96804.44
2022-09-20T02:07:19.521Z,96800.78
2022-09-20T02:10:41.789Z,96805.75
2022-09-20T02:13:50.307Z,96792.91
2022-09-20T02:16:57.667Z,96790.53
2022-09-20T02:20:07.031Z,96802.56
2022-09-20T02:23:19.712Z,96788.97
2022-09-20T02:26:44.243Z,96797.75
2022-09-20T02:30:02.044Z,96799.97
2022-09-20T02:33:31.298Z,96799.34
2022-09-20T02:36:51.354Z,96801.78
2022-09-20T02:40:20.184Z,96811.31
2022-09-20T02:43:41.611Z,96810.16
2022-09-20T02:46:56.000Z,96810.59
2022-09-20T02:50:35.109Z,96811.09
2022-09-20T02:54:18.308Z,96803.47
2022-09-20T02:57:42.476Z,96798.91
2022-09-20T03:01:21.450Z,96798.34
2022-09-20T03:04:56.522Z,96795.94
2022-09-20T03:08:33.225Z,96811.38
2022-09-20T03:11:49.307Z,96798.34
2022-09-20T03:15:04.670Z,96795.91
2022-09-20T03:18:15.497Z,96811.19
2022-09-20T03:22:03.361Z,96804.97
2022-09-20T03:25:22.375Z,96794.31
2022-09-20T03:29:00.318Z,96803.16
2022-09-20T03:32:50.861Z,96808.19
2022-09-20T03:36:27.111Z,96805.50
2022-09-20T03:39:53.628Z,96802.03
2022-09-20T03:42:54.175Z,96800.41
2022-09-20T03:46:19.689Z,96812.88
2022-09-20T03:49:53.943Z,96809.50
2022-09-20T03:52:56.698Z,96809.22
2022-09-20T03:56:30.920Z,96813.97
2022-09-20T04:00:25.051Z,96802.97
2022-09-20T04:03:56.191Z,96799.84
2022-09-20T04:07:35.866Z,96792.63
2022-09-20T04:10:51.524Z,96796.88
2022-09-20T04:14:02.905Z,96796.06
2022-09-20T04:17:40.989Z,96803.63
2022-09-20T04:20:46.127Z,96797.50
2022-09-20T04:24:01.762Z,96812.75
2022-09-20T04:27:42.824Z,96803.16
2022-09-20T04:30:43.944Z,96802.09
2022-09-20T04:33:45.515Z,96793.66
2022-09-20T04:37:03.840Z,96812.16
2022-09-20T04:40:36.396Z,96820.88
2022-09-20T04:44:13.954Z,96820.09
2022-09-20T04:47:58.303Z,96827.88
2022-09-20T04:51:19.604Z,96828.16
2022-09-20T04:55:24.156Z,96827.38
2022-09-20T04:58:36.248Z,96831.28
2022-09-20T05:02:20.302Z,96829.53
2022-09-20T05:06:03.082Z,96827.38
2022-09-20T05:09:43.047Z,96843.44
2022-09-20T05:12:54.650Z,96854.34
2022-09-20T05:16:24.870Z,96852.66
2022-09-20T05:19:52.533Z,96833.56
2022-09-20T05:23:22.339Z,96842.06
2022-09-20T05:26:46.211Z,96855.03
2022-09-20T05:30:04.994Z,96841.19
2022-09-20T05:33:35.347Z,96836.53
2022-09-20T05:36:57.365Z,96847.88
2022-09-20T05:40:30.432Z,96856.31
2022-09-20T05:43:33.571Z,96851.78
2022-09-20T05:47:10.942Z,96866.19
2022-09-20T05:50:56.186Z,96860.72
2022-09-20T05:54:36.579Z,96863.34
2022-09-20T05:58:23.960Z,96867.34
2022-09-20T06:01:26.955Z,96869.50
2022-09-20T06:04:39.981Z,96857.47
2022-09-20T06:08:18.589Z,96864.91
2022-09-20T06:11:49.076Z,96859.28
2022-09-20T06:15:03.249Z,96865.59
2022-09-20T06:18:43.852Z,96863.81
2022-09-20T06:22:12.320Z,96863.03
2022-09-20T06:25:08.982Z,96867.97
2022-09-20T06:28:20.756Z,96873.50
2022-09-20T06:31:18.310Z,96876.97
2022-09-20T06:34:15.857Z,96877.78
2022-09-20T06:38:12.962Z,96876.88
2022-09-20T06:41:28.304Z,96868.28
2022-09-20T06:44:25.088Z,96870.91
2022-09-20T06:47:23.159Z,96880.25
2022-09-20T06:50:20.354Z,96878.72
2022-09-20T06:53:23.674Z,96887.75
2022-09-20T06:56:25.144Z,96886.81
2022-09-20T06:59:21.946Z,96889.94
2022-09-20T07:02:18.923Z,96890.28
2022-09-20T07:05:17.643Z,96893.25
2022-09-20T07:08:14.434Z,96895.09
2022-09-20T07:11:17.461Z,96906.88
2022-09-20T07:14:15.654Z,96902.00
2022-09-20T07:17:13.254Z,96905.28
2022-09-20T07:20:10.238Z,96903.34
2022-09-20T07:23:07.296Z,96905.72
2022-09-20T07:26:04.494Z,96910.69
2022-09-20T07:29:02.120Z,96909.50
2022-09-20T07:31:59.023Z,96909.94
2022-09-20T07:34:56.281Z,96922.50
2022-09-20T07:37:59.171Z,96918.38
2022-09-20T07:41:02.277Z,96931.72
2022-09-20T07:44:19.063Z,96920.06
2022-09-20T07:47:15.918Z,96920.06
2022-09-20T07:50:13.279Z,96913.69
2022-09-20T07:53:10.084Z,96920.47
2022-09-20T07:56:16.192Z,96921.53
2022-09-20T07:59:13.727Z,96928.84
2022-09-20T08:02:15.735Z,96926.88
2022-09-20T08:05:12.644Z,96932.91
2022-09-20T08:08:09.595Z,96936.00
2022-09-20T08:11:10.680Z,96938.06
2022-09-20T08:14:09.091Z,96930.72
2022-09-20T08:17:06.224Z,96934.13
2022-09-20T08:20:03.202Z,96945.59
2022-09-20T08:23:22.066Z,96937.56
2022-09-20T08:26:21.015Z,96941.13
2022-09-20T08:29:17.884Z,96946.34
2022-09-20T08:32:14.820Z,96941.09
2022-09-20T08:35:11.833Z,96944.19
2022-09-20T08:42:12.876Z,96943.72
2022-09-20T08:45:23.356Z,96943.72
2022-09-20T08:48:33.867Z,96943.59
2022-09-20T08:51:35.602Z,96946.25
2022-09-20T08:54:34.788Z,96946.19
2022-09-20T08:57:33.681Z,96943.47
2022-09-20T09:00:33.109Z,96945.16
2022-09-20T09:03:29.905Z,96947.72
2022-09-20T09:06:27.036Z,96948.34
2022-09-20T09:09:27.560Z,96949.72
2022-09-20T09:12:33.962Z,96956.66
2022-09-20T09:15:35.590Z,96949.59
2022-09-20T09:18:37.486Z,96947.22
2022-09-20T09:21:34.290Z,96943.56
2022-09-20T09:24:31.462Z,96942.94
2022-09-20T09:27:28.275Z,96943.00
2022-09-20T09:30:32.872Z,96945.72
2022-09-20T09:33:33.576Z,96948.44
2022-09-20T09:36:30.993Z,96941.63
2022-09-20T09:39:32.868Z,96941.78
2022-09-20T09:42:29.732Z,96946.25
2022-09-20T09:45:40.254Z,96950.75
2022-09-20T09:48:39.726Z,96961.88
2022-09-20T09:51:37.578Z,96962.31
2022-09-20T09:54:44.559Z,96968.16
2022-09-20T09:57:59.624Z,96965.31
2022-09-20T10:00:59.662Z,96982.34
2022-09-20T10:04:27.722Z,96974.13
2022-09-20T10:07:30.556Z,96976.97
2022-09-20T10:11:23.262Z,96981.63
2022-09-20T10:14:41.180Z,96991.34
2022-09-20T10:17:57.349Z,96984.69
2022-09-20T10:21:19.347Z,96974.88
2022-09-20T10:24:34.712Z,96968.13
2022-09-20T10:28:10.670Z,96955.59
2022-09-20T10:31:35.550Z,96948.22
2022-09-20T10:35:23.352Z,96943.06
2022-09-20T10:38:37.204Z,96948.09
2022-09-20T10:42:27.794Z,96953.00
2022-09-20T10:49:41.296Z,96950.47
2022-09-20T10:52:56.824Z,96960.13
2022-09-20T10:56:26.132Z,96955.28
2022-09-20T11:00:03.518Z,96938.31
2022-09-20T11:04:04.784Z,96951.59
2022-09-20T11:07:19.682Z,96951.00
2022-09-20T11:10:24.232Z,96950.56
2022-09-20T11:13:53.136Z,96964.81
2022-09-20T11:17:16.655Z,96962.34
2022-09-20T11:20:26.212Z,96969.41
2022-09-20T11:23:37.408Z,96978.16
2022-09-20T11:27:13.691Z,96984.25
2022-09-20T11:30:21.975Z,96977.94
2022-09-20T11:33:41.532Z,96993.84
2022-09-20T11:37:03.335Z,96991.75
2022-09-20T11:40:14.627Z,96983.66
2022-09-20T11:43:14.782Z,96983.28
2022-09-20T11:46:21.465Z,96964.25
2022-09-20T11:50:03.108Z,96968.38
2022-09-20T11:53:20.484Z,96963.28
2022-09-20T11:56:27.624Z,96961.41
2022-09-20T11:59:52.431Z,96954.59
2022-09-20T12:02:54.018Z,96947.94
2022-09-20T12:06:03.366Z,96954.72
2022-09-20T12:09:22.882Z,96943.19
2022-09-20T12:12:37.694Z,96950.84
2022-09-20T12:15:39.402Z,96950.25
2022-09-20T12:19:02.813Z,96957.19
2022-09-20T12:21:59.559Z,96966.44
2022-09-20T12:25:39.769Z,96957.53
2022-09-20T12:28:42.439Z,96952.84
2022-09-20T12:31:47.772Z,96952.78
2022-09-20T12:34:44.963Z,96952.09
2022-09-20T12:37:42.336Z,96953.13
2022-09-20T12:41:03.838Z,96953.19
2022-09-20T12:44:22.134Z,96959.66
2022-09-20T12:47:23.934Z,96957.53
2022-09-20T12:50:41.372Z,96952.41
2022-09-20T12:53:38.218Z,96947.09
2022-09-20T12:56:40.999Z,96941.88
2022-09-20T12:59:37.813Z,96946.00
2022-09-20T13:02:52.963Z,96955.84
2022-09-20T13:06:08.783Z,96946.94
2022-09-20T13:09:08.933Z,96946.34
2022-09-20T13:12:06.351Z,96942.25
2022-09-20T13:15:05.998Z,96949.34
2022-09-20T13:18:05.522Z,96936.84
2022-09-20T13:21:06.880Z,96942.69
2022-09-20T13:24:05.236Z,96939.84
2022-09-20T13:27:09.430Z,96949.25
2022-09-20T13:30:28.316Z,96966.59
2022-09-20T13:33:25.605Z,96976.78
2022-09-20T13:36:29.987Z,96983.13
2022-09-20T13:39:32.242Z,96985.78
2022-09-20T13:42:31.843Z,96975.81
2022-09-20T13:45:33.697Z,96984.59
2022-09-20T13:48:30.905Z,96976.34
2022-09-20T13:51:28.602Z,96976.56
2022-09-20T13:54:33.058Z,96987.66
2022-09-20T13:57:30.627Z,96989.03
2022-09-20T14:00:29.093Z,96985.34
2022-09-20T14:03:28.596Z,96995.72
2022-09-20T14:06:28.179Z,97002.47
2022-09-20T14:09:36.768Z,97008.22
2022-09-20T14:12:34.139Z,97004.47
2022-09-20T14:15:43.537Z,97009.41
2022-09-20T14:18:43.022Z,97000.69
2022-09-20T14:21:40.092Z,97007.25
2022-09-20T14:24:37.416Z,97010.91
2022-09-20T14:27:34.205Z,97001.00
2022-09-20T14:30:36.903Z,97001.31
2022-09-20T14:33:34.074Z,96993.47
2022-09-20T14:36:31.245Z,96985.19
2022-09-20T14:39:28.265Z,96988.00
2022-09-20T14:42:36.382Z,96997.69
2022-09-20T14:45:43.052Z,96989.84
2022-09-20T14:48:41.938Z,97000.31
2022-09-20T14:51:38.982Z,97005.50
2022-09-20T14:54:35.917Z,97001.84
2022-09-20T14:57:32.872Z,97003.31
2022-09-20T15:00:30.076Z,97010.31
2022-09-20T15:03:38.958Z,97016.34
2022-09-20T15:06:40.050Z,97007.31
2022-09-20T15:09:37.333Z,97008.84
2022-09-20T15:12:34.129Z,97008.16
2022-09-20T15:15:32.100Z,97001.19
2022-09-20T15:18:37.024Z,97016.00
2022-09-20T15:21:33.820Z,97013.97
2022-09-20T15:24:30.718Z,97014.94
2022-09-20T15:27:28.438Z,97004.31
2022-09-20T15:30:25.390Z,97019.59
2022-09-20T15:33:22.491Z,97034.72
2022-09-20T15:36:19.291Z,97041.13
2022-09-20T15:39:16.685Z,97053.63
2022-09-20T15:42:13.761Z,97061.66
2022-09-20T15:45:12.218Z,97062.44
2022-09-20T15:48:11.455Z,97065.97
2022-09-20T15:51:11.342Z,97064.56
2022-09-20T15:54:13.098Z,97067.38
2022-09-20T15:57:09.894Z,97060.75
2022-09-20T16:00:08.082Z,97063.03
2022-09-20T16:03:04.931Z,97061.78
2022-09-20T16:06:05.307Z,97066.97
2022-09-20T16:09:02.178Z,97066.34
2022-09-20T16:12:00.288Z,97065.31
2022-09-20T16:14:57.073Z,97069.34
2022-09-20T16:18:12.303Z,97067.25
2022-09-20T16:21:11.992Z,97068.56
2022-09-20T16:24:10.062Z,97069.63
2022-09-20T16:27:08.477Z,97079.03
2022-09-20T16:30:06.114Z,97075.28
2022-09-20T16:33:05.504Z,97080.44
2022-09-20T16:36:02.476Z,97078.84
2022-09-20T16:38:59.705Z,97083.75
2022-09-20T16:42:03.551Z,97084.03
2022-09-20T16:45:00.380Z,97083.50
2022-09-20T16:47:58.069Z,97099.59
2022-09-20T16:50:54.944Z,97100.41
2022-09-20T16:53:56.019Z,97101.41
2022-09-20T16:56:52.853Z,97111.03
2022-09-20T16:59:51.793Z,97108.88
2022-09-20T17:02:52.264Z,97126.72
2022-09-20T17:05:49.032Z,97116.13
2022-09-20T17:08:46.776Z,97122.28
2022-09-20T17:11:47.254Z,97118.81
2022-09-20T17:14:44.058Z,97122.28
2022-09-20T17:17:42.164Z,97129.56
2022-09-20T17:20:40.518Z,97135.50
2022-09-20T17:23:37.363Z,97143.94
2022-09-20T17:26:40.309Z,97143.91
2022-09-20T17:29:37.116Z,97153.00
2022-09-20T17:32:33.935Z,97159.13
2022-09-20T17:35:30.879Z,97163.75
2022-09-20T17:38:30.993Z,97161.81
2022-09-20T17:41:29.389Z,97157.06
2022-09-20T17:44:27.442Z,97159.34
2022-09-20T17:47:24.873Z,97155.41
2022-09-20T17:50:21.708Z,97165.13
2022-09-20T17:53:18.487Z,97177.69
2022-09-20T17:56:15.680Z,97175.78
2022-09-20T17:59:17.262Z,97179.81
2022-09-20T18:02:14.040Z,97170.97
2022-09-20T18:05:10.827Z,97179.56
2022-09-20T18:08:07.817Z,97183.03
2022-09-20T18:11:04.937Z,97184.91
2022-09-20T18:14:03.853Z,97188.66
2022-09-20T18:17:03.834Z,97188.63
2022-09-20T18:20:00.666Z,97193.16
2022-09-20T18:22:57.467Z,97202.47
2022-09-20T18:26:12.604Z,97207.81
2022-09-20T18:29:12.601Z,97209.66
2022-09-20T18:32:09.461Z,97215.25
2022-09-20T18:35:06.509Z,97215.75
2022-09-20T18:38:03.346Z,97222.38
2022-09-20T18:41:01.614Z,97228.28
2022-09-20T18:43:58.969Z,97224.31
2022-09-20T18:46:55.800Z,97224.03
2022-09-20T18:49:52.628Z,97227.19
2022-09-20T18:52:51.144Z,97233.06
2022-09-20T18:55:49.810Z,97230.97
2022-09-20T18:58:47.386Z,97231.72
2022-09-20T19:01:50.432Z,97241.00
2022-09-20T19:05:28.191Z,97243.13
2022-09-20T19:08:34.793Z,97251.97
2022-09-20T19:11:39.328Z,97245.91
2022-09-20T19:14:57.200Z,97237.06
2022-09-20T19:18:35.637Z,97237.75
2022-09-20T19:21:54.708Z,97239.03
2022-09-20T19:25:20.438Z,97247.81
2022-09-20T19:28:17.446Z,97250.34
2022-09-20T19:31:33.751Z,97247.00
2022-09-20T19:34:32.530Z,97250.00
2022-09-20T19:38:23.622Z,97254.72
2022-09-20T19:41:26.540Z,97256.47
2022-09-20T19:44:39.817Z,97256.81
2022-09-20T19:47:57.166Z,97259.53
2022-09-20T19:50:54.664Z,97269.72
2022-09-20T19:53:53.456Z,97263.53
2022-09-20T19:56:59.417Z,97265.06
2022-09-20T19:59:57.148Z,97271.13
2022-09-20T20:02:54.268Z,97272.25
2022-09-20T20:06:19.295Z,97274.13
2022-09-20T20:09:40.700Z,97280.50
2022-09-20T20:13:40.353Z,97282.38
2022-09-20T20:17:10.524Z,97284.41
2022-09-20T20:20:48.324Z,97296.44
2022-09-20T20:24:20.575Z,97284.16
2022-09-20T20:27:17.892Z,97285.41
2022-09-20T20:30:14.778Z,97290.78
2022-09-20T20:33:16.192Z,97293.97
2022-09-20T20:36:13.146Z,97303.34
2022-09-20T20:39:11.200Z,97302.22
2022-09-20T20:42:11.899Z,97307.00
2022-09-20T20:45:10.436Z,97303.81
2022-09-20T20:48:07.250Z,97295.75
2022-09-20T20:51:07.922Z,97309.03
2022-09-20T20:54:05.313Z,97304.22
2022-09-20T20:57:03.254Z,97309.91
2022-09-20T21:00:00.630Z,97308.09
2022-09-20T21:03:01.774Z,97314.84
2022-09-20T21:05:58.587Z,97319.63
2022-09-20T21:08:55.410Z,97317.72
2022-09-20T21:11:52.572Z,97317.34
2022-09-20T21:14:49.361Z,97310.88
2022-09-20T21:17:53.640Z,97313.09
2022-09-20T21:20:50.444Z,97322.38
2022-09-20T21:23:51.674Z,97326.63
2022-09-20T21:26:48.527Z,97326.25
2022-09-20T21:29:45.363Z,97319.19
2022-09-20T21:32:42.155Z,97324.88
2022-09-20T21:35:38.925Z,97332.03
2022-09-20T21:38:36.776Z,97338.56
2022-09-20T21:41:37.111Z,97348.44
2022-09-20T21:44:33.927Z,97339.38
2022-09-20T21:47:30.712Z,97355.75
2022-09-20T21:50:27.518Z,97352.03
2022-09-20T21:53:24.328Z,97354.22
2022-09-20T21:56:21.113Z,97352.41
2022-09-20T21:59:18.522Z,97358.09
2022-09-20T22:02:16.953Z,97354.59
2022-09-20T22:05:13.830Z,97352.44
2022-09-20T22:08:10.626Z,97360.03
2022-09-20T22:11:11.186Z,97367.44
2022-09-20T22:14:13.404Z,97364.28
2022-09-20T22:17:10.190Z,97374.66
2022-09-20T22:20:07.631Z,97374.91
2022-09-20T22:23:04.430Z,97365.31
2022-09-20T22:26:04.599Z,97370.59
2022-09-20T22:29:02.256Z,97362.59
2022-09-20T22:31:59.064Z,97362.94
2022-09-20T22:34:57.759Z,97365.16
2022-09-20T22:37:56.382Z,97362.78
2022-09-20T22:40:55.713Z,97360.91
2022-09-20T22:43:52.872Z,97359.22
2022-09-20T22:46:50.697Z,97367.41
2022-09-20T22:49:47.489Z,97353.28
2022-09-20T22:52:44.305Z,97354.00
2022-09-20T22:55:41.065Z,97364.47
2022-09-20T22:58:41.463Z,97352.97
2022-09-20T23:01:45.301Z,97359.63
2022-09-20T23:04:42.148Z,97368.06
2022-09-20T23:07:39.451Z,97365.03
2022-09-20T23:10:36.226Z,97358.75
2022-09-20T23:13:33.247Z,97355.50
2022-09-20T23:16:35.341Z,97353.44
2022-09-20T23:19:32.254Z,97353.72
2022-09-20T23:22:29.026Z,97355.81
2022-09-20T23:25:25.813Z,97361.84
2022-09-20T23:28:23.307Z,97362.75
2022-09-20T23:31:20.193Z,97367.44
2022-09-20T23:34:17.713Z,97371.75
2022-09-20T23:37:14.514Z,97368.59
2022-09-20T23:40:11.492Z,97364.34
2022-09-20T23:43:08.325Z,97367.66
2022-09-20T23:46:06.193Z,97372.56
2022-09-20T23:49:03.756Z,97365.94
2022-09-20T23:52:00.740Z,97365.00
2022-09-20T23:54:57.519Z,97374.84
2022-09-20T23:57:57.661Z,97364.63
